General Ignacio P. Garcia International Airport


Codes: MMHO/HMO
Name: General Ignacio P. Garcia International Airport
City: Hermosillo
Country: Mexico
Elevation: 627 ft.
Wikipedia:

Photos at General Ignacio P. Garcia International Airport


   Photos courtesy of SpottingLog. You can add your own sightings and photos by signing up for a free trial today.



No photos found.

Weather at General Ignacio P. Garcia International Airport


Time (UTC)DescriptionTempratureWindCloud coverageVisibilityPressureHumidity
16-Jun-2024 12:00Clear Sky27°C4 mph, SE0%10000m1006hPa60%
16-Jun-2024 15:00Clear Sky29°C7 mph, SE0%10000m1007hPa49%
16-Jun-2024 18:00Clear Sky36°C9 mph, S0%10000m1006hPa20%
16-Jun-2024 21:00Clear Sky40°C11 mph, SW0%10000m1003hPa15%
17-Jun-2024 00:00Clear Sky38°C18 mph, SW0%10000m1002hPa18%
17-Jun-2024 03:00Clear Sky34°C11 mph, SW0%10000m1002hPa21%
17-Jun-2024 06:00Clear Sky29°C7 mph, SW0%10000m1004hPa42%
17-Jun-2024 09:00Clear Sky27°C2 mph, NW0%10000m1003hPa41%
17-Jun-2024 12:00Clear Sky26°C2 mph, NE0%10000m1003hPa38%
17-Jun-2024 15:00Clear Sky31°C9 mph, SE0%10000m1004hPa33%
17-Jun-2024 18:00Clear Sky36°C16 mph, SW0%10000m1004hPa18%
17-Jun-2024 21:00Clear Sky38°C20 mph, SW0%10000m1002hPa11%
18-Jun-2024 00:00Clear Sky37°C18 mph, SW0%10000m1001hPa12%
18-Jun-2024 03:00Clear Sky32°C11 mph, SW0%10000m1002hPa24%
18-Jun-2024 06:00Clear Sky28°C7 mph, SW0%10000m1003hPa43%
18-Jun-2024 09:00Clear Sky26°C4 mph, S0%10000m1003hPa51%
18-Jun-2024 12:00Clear Sky25°C7 mph, S0%10000m1004hPa51%
18-Jun-2024 15:00Clear Sky29°C7 mph, SE0%10000m1005hPa40%
18-Jun-2024 18:00Clear Sky35°C13 mph, S0%10000m1004hPa22%
18-Jun-2024 21:00Clear Sky37°C20 mph, SW0%10000m1003hPa17%
19-Jun-2024 00:00Clear Sky35°C16 mph, SW0%10000m1003hPa19%
19-Jun-2024 03:00Clear Sky31°C9 mph, SW0%10000m1004hPa22%
19-Jun-2024 06:00Clear Sky28°C4 mph, SW0%10000m1006hPa34%
19-Jun-2024 09:00Clear Sky26°C2 mph, SW0%10000m1005hPa44%
19-Jun-2024 12:00Clear Sky25°C2 mph, S0%10000m1006hPa51%
19-Jun-2024 15:00Clear Sky29°C2 mph, SE0%10000m1007hPa37%
19-Jun-2024 18:00Clear Sky34°C4 mph, S0%10000m1006hPa23%
19-Jun-2024 21:00Clear Sky38°C11 mph, SW0%10000m1003hPa14%
20-Jun-2024 00:00Clear Sky38°C16 mph, W0%10000m1002hPa11%
20-Jun-2024 03:00Clear Sky33°C11 mph, W0%10000m1003hPa13%
20-Jun-2024 06:00Clear Sky29°C4 mph, W0%10000m1004hPa17%
20-Jun-2024 09:00Clear Sky27°C2 mph, SW0%10000m1003hPa24%
20-Jun-2024 12:00Clear Sky26°C2 mph, W0%10000m1003hPa28%
20-Jun-2024 15:00Clear Sky31°C2 mph, W0%10000m1004hPa21%
20-Jun-2024 18:00Clear Sky37°C7 mph, SW0%10000m1003hPa13%
20-Jun-2024 21:00Clear Sky42°C11 mph, W0%10000m1001hPa9%
21-Jun-2024 00:00Clear Sky42°C16 mph, W0%10000m998hPa8%
21-Jun-2024 03:00Clear Sky36°C16 mph, W0%10000m999hPa12%
21-Jun-2024 06:00Clear Sky33°C7 mph, W0%10000m1000hPa13%
21-Jun-2024 09:00Clear Sky31°C4 mph, S0%10000m1000hPa14%